This is the latest recevied weather packets stored in our database for station/object IU7URP-30. If no packets are shown the sender has not sent any weather packets the latest 10 day(s).
| Time | Temp. | Humidity | Pressure | Rain* | Wind** | Luminosity | Snow |
|---|---|---|---|---|---|---|---|
| 1777741614 | 17.78° C | 29% | 1022.9 hPa | - | - | - | - |
| 1777740713 | 18.33° C | 29% | 1022.8 hPa | - | - | - | - |
| 1777739813 | 18.89° C | 28% | 1022.8 hPa | - | - | - | - |
| 1777738913 | 20° C | 26% | 1022.8 hPa | - | - | - | - |
| 1777738013 | 20.56° C | 25% | 1022.9 hPa | - | - | - | - |
| 1777737112 | 20.56° C | 23% | 1022.9 hPa | - | - | - | - |
| 1777736212 | 20.56° C | 22% | 1023 hPa | - | - | - | - |
| 1777735312 | 20.56° C | 22% | 1023.2 hPa | - | - | - | - |
| 1777734411 | 20° C | 22% | 1023.2 hPa | - | - | - | - |
| 1777733511 | 20.56° C | 21% | 1023.2 hPa | - | - | - | - |
| 1777732611 | 21.11° C | 21% | 1023.4 hPa | - | - | - | - |
| 1777731710 | 21.11° C | 21% | 1023.4 hPa | - | - | - | - |
| 1777730810 | 22.22° C | 21% | 1023.7 hPa | - | - | - | - |
| 1777729910 | 21.67° C | 22% | 1023.8 hPa | - | - | - | - |
| 1777729010 | 21.67° C | 21% | 1023.9 hPa | - | - | - | - |
| 1777728109 | 21.67° C | 21% | 1024.2 hPa | - | - | - | - |
| 1777727209 | 20° C | 23% | 1024.1 hPa | - | - | - | - |
| 1777726309 | 20.56° C | 22% | 1024.5 hPa | - | - | - | - |
| 1777725408 | 21.11° C | 22% | 1024.5 hPa | - | - | - | - |
| 1777724508 | 20.56° C | 24% | 1024.6 hPa | - | - | - | - |
| 1777723608 | 20.56° C | 24% | 1024.9 hPa | - | - | - | - |
| 1777722707 | 20.56° C | 26% | 1025 hPa | - | - | - | - |
| 1777686991 | 8.89° C | 57% | 1025.8 hPa | - | - | - | - |
| 1777686091 | 9.44° C | 57% | 1025.8 hPa | - | - | - | - |
| 1777683390 | 8.89° C | 52% | 1026 hPa | - | - | - | - |
* Rain since midnight (hover to see other rain measurements)
** Current wind speed in m/s (hover to see current wind gust speed)